createdAt,value
2023-02-11T00:01:32.549Z,17.02
2023-02-11T00:04:00.350Z,17.35
2023-02-11T00:06:28.841Z,14.32
2023-02-11T00:08:56.567Z,15.93
2023-02-11T00:11:31.346Z,19.50
2023-02-11T00:14:00.156Z,20.02
2023-02-11T00:16:27.257Z,15.82
2023-02-11T00:18:55.397Z,16.90
2023-02-11T00:21:24.726Z,16.73
2023-02-11T00:23:52.003Z,19.02
2023-02-11T00:26:20.631Z,17.55
2023-02-11T00:28:48.743Z,15.27
2023-02-11T00:31:17.788Z,18.00
2023-02-11T00:41:07.769Z,15.73
2023-02-11T00:43:35.904Z,17.33
2023-02-11T00:46:02.876Z,19.02
2023-02-11T00:48:29.713Z,18.23
2023-02-11T00:50:56.976Z,17.80
2023-02-11T00:53:23.762Z,15.73
2023-02-11T00:55:50.947Z,21.63
2023-02-11T00:58:17.919Z,17.75
2023-02-11T01:00:44.741Z,19.53
2023-02-11T01:03:11.572Z,17.00
2023-02-11T01:05:38.469Z,16.77
2023-02-11T01:08:07.506Z,14.93
2023-02-11T01:10:34.273Z,18.10
2023-02-11T01:13:01.726Z,11.70
2023-02-11T01:15:28.706Z,19.00
2023-02-11T01:17:55.454Z,17.40
2023-02-11T01:20:25.927Z,18.40
2023-02-11T01:22:52.623Z,16.35
2023-02-11T01:25:19.780Z,10.47
2023-02-11T01:27:47.083Z,18.35
2023-02-11T01:30:14.431Z,14.20
2023-02-11T01:32:41.436Z,14.65
2023-02-11T01:35:08.285Z,14.07
2023-02-11T01:37:39.724Z,22.77
2023-02-11T01:40:14.508Z,18.25
2023-02-11T01:42:56.681Z,17.77
2023-02-11T01:45:46.203Z,16.45
2023-02-11T01:48:25.145Z,16.23
2023-02-11T01:50:57.132Z,17.53
2023-02-11T01:53:43.103Z,13.57
2023-02-11T01:56:29.953Z,13.80
2023-02-11T01:59:03.975Z,15.27
2023-02-11T02:01:33.705Z,10.05
2023-02-11T02:04:03.221Z,13.13
2023-02-11T02:06:46.436Z,14.07
2023-02-11T02:09:26.617Z,17.67
2023-02-11T02:11:53.465Z,18.00
2023-02-11T02:14:20.498Z,12.35
2023-02-11T02:16:47.422Z,20.20
2023-02-11T02:19:25.265Z,18.92
2023-02-11T02:22:40.402Z,20.85
2023-02-11T02:25:15.452Z,19.73
2023-02-11T02:28:24.000Z,17.83
2023-02-11T02:31:48.344Z,20.57
2023-02-11T02:34:39.793Z,16.65
2023-02-11T02:37:18.618Z,20.63
2023-02-11T02:39:48.655Z,15.80
2023-02-11T02:42:16.891Z,17.75
2023-02-11T02:44:49.867Z,17.33
2023-02-11T02:47:17.011Z,14.45
2023-02-11T02:49:43.838Z,17.48
2023-02-11T02:52:24.592Z,12.85
2023-02-11T02:55:16.406Z,23.95
2023-02-11T02:58:05.285Z,21.43
2023-02-11T03:00:50.123Z,19.70
2023-02-11T03:03:17.013Z,19.17
2023-02-11T03:05:57.047Z,27.98
2023-02-11T03:08:25.026Z,21.85
2023-02-11T03:10:54.241Z,24.27
2023-02-11T03:13:28.502Z,17.77
2023-02-11T03:15:58.707Z,20.17
2023-02-11T03:18:30.720Z,18.40
2023-02-11T03:20:58.245Z,18.90
2023-02-11T03:23:56.574Z,27.40
2023-02-11T03:26:40.468Z,20.25
2023-02-11T03:29:23.349Z,22.83
2023-02-11T03:32:07.069Z,20.70
2023-02-11T03:34:57.094Z,18.35
2023-02-11T03:37:36.710Z,21.03
2023-02-11T03:40:05.465Z,25.08
2023-02-11T03:42:50.838Z,24.48
2023-02-11T03:45:22.349Z,27.88
2023-02-11T03:48:01.867Z,22.65
2023-02-11T03:50:31.958Z,20.77
2023-02-11T03:53:01.302Z,32.60
2023-02-11T03:55:29.839Z,29.55
2023-02-11T03:57:56.969Z,27.27
2023-02-11T04:00:31.422Z,21.15
2023-02-11T04:02:58.407Z,24.80
2023-02-11T04:05:25.458Z,28.80
2023-02-11T04:07:52.161Z,25.42
2023-02-11T04:10:18.921Z,30.90
2023-02-11T04:12:45.631Z,27.08
2023-02-11T04:15:12.327Z,25.20
2023-02-11T04:17:39.227Z,27.98
2023-02-11T04:20:06.171Z,33.58
2023-02-11T04:22:32.848Z,34.88
2023-02-11T04:24:59.625Z,30.98
2023-02-11T04:27:26.377Z,32.27
2023-02-11T04:29:54.113Z,32.20
2023-02-11T04:32:21.022Z,16.42
2023-02-11T04:34:48.385Z,24.42
2023-02-11T04:37:15.247Z,27.05
2023-02-11T04:39:41.975Z,22.37
2023-02-11T04:42:08.721Z,24.63
2023-02-11T04:44:35.408Z,19.20
2023-02-11T04:47:02.138Z,21.35
2023-02-11T04:49:28.963Z,19.17
2023-02-11T04:51:56.175Z,18.10
2023-02-11T04:54:23.183Z,23.83
2023-02-11T04:56:51.133Z,21.10
2023-02-11T04:59:18.012Z,22.30
2023-02-11T05:01:44.855Z,20.65
2023-02-11T05:04:11.737Z,28.03
2023-02-11T05:06:39.900Z,27.33
2023-02-11T05:09:06.687Z,33.08
2023-02-11T05:11:33.600Z,29.48
2023-02-11T05:14:00.394Z,32.17
2023-02-11T05:16:27.216Z,33.70
2023-02-11T05:18:55.800Z,31.30
2023-02-11T05:21:22.837Z,31.92
2023-02-11T05:23:49.636Z,36.30
2023-02-11T05:26:16.791Z,32.92
2023-02-11T05:28:44.419Z,35.20
2023-02-11T05:31:12.167Z,38.22
2023-02-11T05:33:38.990Z,35.50
2023-02-11T05:36:08.977Z,37.47
2023-02-11T05:38:36.819Z,35.42
2023-02-11T05:41:04.674Z,27.70
2023-02-11T05:43:31.754Z,39.30
2023-02-11T05:45:58.705Z,32.85
2023-02-11T05:48:25.498Z,33.63
2023-02-11T05:50:52.509Z,37.70
2023-02-11T05:53:19.327Z,37.37
2023-02-11T05:55:46.351Z,32.72
2023-02-11T05:58:13.716Z,34.17
2023-02-11T06:00:40.770Z,39.15
2023-02-11T06:03:08.150Z,41.55
2023-02-11T06:05:34.982Z,34.87
2023-02-11T06:08:01.753Z,41.97
2023-02-11T06:10:28.730Z,35.00
2023-02-11T06:12:55.550Z,31.75
2023-02-11T06:15:22.293Z,33.72
2023-02-11T06:17:49.078Z,33.87
2023-02-11T06:20:16.166Z,36.58
2023-02-11T06:22:42.952Z,30.10
2023-02-11T06:25:11.174Z,36.67
2023-02-11T06:27:38.450Z,36.22
2023-02-11T06:30:06.928Z,39.57
2023-02-11T06:32:49.607Z,38.00
2023-02-11T06:35:16.449Z,41.15
2023-02-11T06:37:43.916Z,34.30
2023-02-11T06:40:11.622Z,42.40
2023-02-11T06:42:39.192Z,38.77
2023-02-11T06:45:09.123Z,46.17
2023-02-11T06:47:36.040Z,44.15
2023-02-11T06:50:03.655Z,50.00
2023-02-11T06:52:30.424Z,48.45
2023-02-11T06:55:01.182Z,40.27
2023-02-11T06:57:27.921Z,43.78
2023-02-11T06:59:55.662Z,37.38
2023-02-11T07:02:22.363Z,42.38
2023-02-11T07:04:49.242Z,40.53
2023-02-11T07:07:16.081Z,42.47
2023-02-11T07:09:42.949Z,51.05
2023-02-11T07:12:10.706Z,45.72
2023-02-11T07:14:37.469Z,44.83
2023-02-11T07:17:04.834Z,41.60
2023-02-11T07:19:31.960Z,40.80
2023-02-11T07:21:58.706Z,43.40
2023-02-11T07:24:25.576Z,46.88
2023-02-11T07:27:04.716Z,43.15
2023-02-11T07:29:35.900Z,40.08
2023-02-11T07:32:02.939Z,34.27
2023-02-11T07:34:31.008Z,39.75
2023-02-11T07:36:57.812Z,32.80
2023-02-11T07:39:46.483Z,34.70
2023-02-11T07:42:13.259Z,39.88
2023-02-11T07:44:39.957Z,33.53
2023-02-11T07:47:06.722Z,40.30
2023-02-11T07:49:34.324Z,40.97
2023-02-11T07:52:01.047Z,38.53
2023-02-11T07:54:29.274Z,37.88
2023-02-11T07:56:56.009Z,41.13
2023-02-11T07:59:26.006Z,44.72
2023-02-11T08:01:53.041Z,41.92
2023-02-11T08:04:20.945Z,46.05
2023-02-11T08:06:47.744Z,41.55
2023-02-11T08:09:19.230Z,42.93
2023-02-11T08:11:46.023Z,56.22
2023-02-11T08:14:13.228Z,61.42
2023-02-11T08:16:41.316Z,49.83
2023-02-11T08:19:12.347Z,44.90
2023-02-11T08:21:39.642Z,47.83
2023-02-11T08:24:07.022Z,47.60
2023-02-11T08:26:35.019Z,55.42
2023-02-11T08:29:15.944Z,46.88
2023-02-11T08:31:46.592Z,48.53
2023-02-11T08:34:14.553Z,41.80
2023-02-11T08:36:44.933Z,41.42
2023-02-11T08:39:22.383Z,41.05
2023-02-11T08:41:53.246Z,44.30
2023-02-11T08:44:26.279Z,44.88
2023-02-11T08:49:36.289Z,41.47
2023-02-11T08:52:05.169Z,37.50
2023-02-11T08:57:51.788Z,43.50
2023-02-11T09:00:20.594Z,38.37
2023-02-11T09:02:49.328Z,37.20
2023-02-11T09:05:19.377Z,40.28
2023-02-11T09:07:46.353Z,36.45
2023-02-11T09:10:13.824Z,32.97
2023-02-11T09:12:43.355Z,36.30
2023-02-11T09:15:10.379Z,35.22
2023-02-11T09:17:37.437Z,36.22
2023-02-11T09:20:04.642Z,34.63
2023-02-11T09:22:33.157Z,38.28
2023-02-11T09:25:01.022Z,36.30
2023-02-11T09:27:27.703Z,30.88
2023-02-11T09:29:54.622Z,34.72
2023-02-11T09:32:21.642Z,28.30
2023-02-11T09:34:52.870Z,32.00
2023-02-11T09:37:19.920Z,29.97
2023-02-11T09:39:47.744Z,26.17
2023-02-11T09:42:35.690Z,26.02
2023-02-11T09:45:04.882Z,33.67
2023-02-11T09:47:41.385Z,30.95
2023-02-11T09:50:14.290Z,27.27
2023-02-11T09:53:09.409Z,31.90
2023-02-11T09:55:42.681Z,27.13
2023-02-11T09:58:30.114Z,30.98
2023-02-11T10:01:09.169Z,33.58
2023-02-11T10:04:00.724Z,28.40
2023-02-11T10:06:40.865Z,26.95
2023-02-11T10:09:37.637Z,26.30
2023-02-11T10:12:35.474Z,31.10
2023-02-11T10:15:14.172Z,27.90
2023-02-11T10:18:07.704Z,27.63
2023-02-11T10:21:10.223Z,25.17
2023-02-11T10:26:24.176Z,31.27
2023-02-11T10:28:54.629Z,28.00
2023-02-11T10:31:27.753Z,21.90
2023-02-11T10:34:05.568Z,25.02
2023-02-11T10:36:41.325Z,25.95
2023-02-11T10:39:17.804Z,25.88
2023-02-11T10:41:53.216Z,27.70
2023-02-11T10:44:46.812Z,23.47
2023-02-11T10:47:22.098Z,22.23
2023-02-11T10:49:49.959Z,26.73
2023-02-11T10:52:23.738Z,20.27
2023-02-11T10:55:03.690Z,20.50
2023-02-11T10:57:34.920Z,19.60
2023-02-11T11:00:21.383Z,23.45
2023-02-11T11:02:59.634Z,21.95
2023-02-11T11:05:36.522Z,25.63
2023-02-11T11:08:07.349Z,21.80
2023-02-11T11:10:44.742Z,15.03
2023-02-11T11:13:28.196Z,19.02
2023-02-11T11:16:13.466Z,12.18
2023-02-11T11:18:42.105Z,13.98
2023-02-11T11:21:36.528Z,6.88
2023-02-11T11:24:04.106Z,7.67
2023-02-11T11:26:48.911Z,11.45
2023-02-11T11:29:46.560Z,8.35
2023-02-11T11:32:20.831Z,12.90
2023-02-11T11:34:55.728Z,7.95
2023-02-11T11:37:33.442Z,12.83
2023-02-11T11:40:29.064Z,9.38
2023-02-11T11:43:23.166Z,10.15
2023-02-11T11:45:56.154Z,10.73
2023-02-11T11:48:28.472Z,11.40
2023-02-11T11:51:03.623Z,10.17
2023-02-11T11:53:51.255Z,10.23
2023-02-11T11:56:53.120Z,13.38
2023-02-11T11:59:20.441Z,10.32
2023-02-11T12:01:55.206Z,13.48
2023-02-11T12:04:31.335Z,7.37
2023-02-11T12:07:16.630Z,10.52
2023-02-11T12:09:56.102Z,12.70
2023-02-11T12:12:53.438Z,11.32
2023-02-11T12:15:34.426Z,10.85
2023-02-11T12:18:25.589Z,10.63
2023-02-11T12:21:04.139Z,11.73
2023-02-11T12:23:33.727Z,15.40
2023-02-11T12:26:17.887Z,13.68
2023-02-11T12:29:15.668Z,8.23
2023-02-11T12:31:57.582Z,13.30
2023-02-11T12:35:11.978Z,11.15
2023-02-11T12:37:48.122Z,11.95
2023-02-11T12:40:44.943Z,9.70
2023-02-11T12:43:26.877Z,10.75
2023-02-11T12:46:39.068Z,10.33
2023-02-11T12:49:15.139Z,9.20
2023-02-11T12:52:13.901Z,10.63
2023-02-11T12:55:04.904Z,8.25
2023-02-11T12:57:35.233Z,8.10
2023-02-11T13:00:25.349Z,7.63
2023-02-11T13:03:31.935Z,7.53
2023-02-11T13:06:05.083Z,10.02
2023-02-11T13:08:49.465Z,10.18
2023-02-11T13:11:26.793Z,8.82
2023-02-11T13:14:04.550Z,8.13
2023-02-11T13:16:44.419Z,7.68
2023-02-11T13:19:17.156Z,9.50
2023-02-11T13:22:05.264Z,7.88
2023-02-11T13:24:51.503Z,10.10
2023-02-11T13:27:37.344Z,8.87
2023-02-11T13:30:33.704Z,8.98
2023-02-11T13:33:03.341Z,6.15
2023-02-11T13:35:32.039Z,7.38
2023-02-11T13:38:07.185Z,10.02
2023-02-11T13:40:40.232Z,8.37
2023-02-11T13:43:21.784Z,9.05
2023-02-11T13:45:52.507Z,7.32
2023-02-11T13:48:31.675Z,7.97
2023-02-11T13:51:02.928Z,8.70
2023-02-11T13:53:30.028Z,6.43
2023-02-11T13:56:25.863Z,6.30
2023-02-11T13:58:53.605Z,17.58
2023-02-11T14:02:20.787Z,10.63
2023-02-11T14:05:24.174Z,7.50
2023-02-11T14:08:33.167Z,10.20
2023-02-11T14:11:13.742Z,11.43
2023-02-11T14:13:49.575Z,13.00
2023-02-11T14:16:28.302Z,10.32
2023-02-11T14:19:06.902Z,9.50
2023-02-11T14:21:42.097Z,11.30
2023-02-11T14:24:14.387Z,10.65
2023-02-11T14:26:56.856Z,9.50
2023-02-11T14:30:02.662Z,7.03
2023-02-11T14:32:56.703Z,12.30
2023-02-11T14:35:48.349Z,6.17
2023-02-11T14:38:35.967Z,8.50
2023-02-11T14:41:24.076Z,9.32
2023-02-11T14:43:58.745Z,7.85
2023-02-11T14:46:35.672Z,9.10
2023-02-11T14:49:05.400Z,10.37
2023-02-11T14:51:41.297Z,9.70
2023-02-11T14:54:17.476Z,9.73
2023-02-11T14:56:45.701Z,14.50
2023-02-11T14:59:23.692Z,10.43
2023-02-11T15:02:08.131Z,8.40
2023-02-11T15:04:39.242Z,8.32
2023-02-11T15:07:08.547Z,10.48
2023-02-11T15:09:50.785Z,8.70
2023-02-11T15:12:25.612Z,5.07
2023-02-11T15:14:58.666Z,9.00
2023-02-11T15:17:32.092Z,11.10
2023-02-11T15:20:08.060Z,11.07
2023-02-11T15:22:37.376Z,6.10
2023-02-11T15:25:18.069Z,9.05
2023-02-11T15:27:48.582Z,8.27
2023-02-11T15:30:21.434Z,9.88
2023-02-11T15:32:49.307Z,9.27
2023-02-11T15:35:17.595Z,9.23
2023-02-11T15:37:45.388Z,10.10
2023-02-11T15:40:19.018Z,10.23
2023-02-11T15:43:02.794Z,10.68
2023-02-11T15:45:37.691Z,10.82
2023-02-11T15:48:18.648Z,9.60
2023-02-11T15:50:52.914Z,10.35
2023-02-11T15:53:23.141Z,9.77
2023-02-11T15:55:52.849Z,13.60
2023-02-11T15:58:23.617Z,8.93
2023-02-11T16:00:59.669Z,9.02
2023-02-11T16:03:32.598Z,10.07
2023-02-11T16:06:35.084Z,9.27
2023-02-11T16:09:12.518Z,11.23
2023-02-11T16:11:48.258Z,10.55
2023-02-11T16:14:37.163Z,10.75
2023-02-11T16:17:21.316Z,12.60
2023-02-11T16:19:50.720Z,22.93
2023-02-11T16:22:26.520Z,18.77
2023-02-11T16:24:56.860Z,19.10
2023-02-11T16:27:32.755Z,13.80
2023-02-11T16:29:59.720Z,11.77
2023-02-11T16:32:29.150Z,12.17
2023-02-11T16:35:12.316Z,14.35
2023-02-11T16:37:39.063Z,15.27
2023-02-11T16:40:06.579Z,11.73
2023-02-11T16:42:33.296Z,11.82
2023-02-11T16:45:00.296Z,13.10
2023-02-11T16:47:28.690Z,13.57
2023-02-11T16:49:56.291Z,13.13
2023-02-11T16:52:23.547Z,12.52
2023-02-11T16:54:50.528Z,13.40
2023-02-11T16:57:23.139Z,13.57
2023-02-11T16:59:50.731Z,15.43
2023-02-11T17:02:24.064Z,13.10
2023-02-11T17:04:55.240Z,13.50
2023-02-11T17:07:22.297Z,14.88
2023-02-11T17:09:49.092Z,12.43
2023-02-11T17:12:15.905Z,13.68
2023-02-11T17:14:42.700Z,17.08
2023-02-11T17:17:10.686Z,14.48
2023-02-11T17:19:37.887Z,18.13
2023-02-11T17:22:05.050Z,14.33
2023-02-11T17:24:32.134Z,16.70
2023-02-11T17:26:59.160Z,19.67
2023-02-11T17:29:26.423Z,14.02
2023-02-11T17:31:53.880Z,14.30
2023-02-11T17:34:22.073Z,17.33
2023-02-11T17:36:49.238Z,14.73
2023-02-11T17:39:16.087Z,15.07
2023-02-11T17:41:42.875Z,10.80
2023-02-11T17:44:12.416Z,19.65
2023-02-11T17:46:39.357Z,15.90
2023-02-11T17:49:06.133Z,15.52
2023-02-11T17:51:44.370Z,13.52
2023-02-11T17:54:14.584Z,22.38
2023-02-11T17:56:41.925Z,17.65
2023-02-11T17:59:09.962Z,15.30
2023-02-11T18:01:38.860Z,16.30
2023-02-11T18:04:06.730Z,18.45
2023-02-11T18:06:36.781Z,11.32
2023-02-11T18:09:04.449Z,12.90
2023-02-11T18:11:33.694Z,15.10
2023-02-11T18:14:02.116Z,14.32
2023-02-11T18:16:30.429Z,12.45
2023-02-11T18:18:58.632Z,11.35
2023-02-11T18:21:25.834Z,12.27
2023-02-11T18:23:52.880Z,17.30
2023-02-11T18:26:21.557Z,13.13
2023-02-11T18:28:48.483Z,13.70
2023-02-11T18:31:15.671Z,14.48
2023-02-11T18:33:42.839Z,12.45
2023-02-11T18:36:15.094Z,14.43
2023-02-11T18:38:44.341Z,14.65
2023-02-11T18:41:13.300Z,11.77
2023-02-11T18:43:40.437Z,13.23
2023-02-11T18:46:12.919Z,13.27
2023-02-11T18:48:40.464Z,13.87
2023-02-11T18:51:12.523Z,12.23
2023-02-11T18:53:39.759Z,11.65
2023-02-11T18:56:12.000Z,13.40
2023-02-11T18:58:39.602Z,12.20
2023-02-11T19:01:22.911Z,12.23
2023-02-11T19:03:50.323Z,12.00
2023-02-11T19:06:26.473Z,12.65
2023-02-11T19:08:59.911Z,9.95
2023-02-11T19:11:47.526Z,14.07
2023-02-11T19:14:22.377Z,14.90
2023-02-11T19:16:51.322Z,14.80
2023-02-11T19:19:18.418Z,13.35
2023-02-11T19:21:46.172Z,12.57
2023-02-11T19:24:15.574Z,17.25
2023-02-11T19:26:43.010Z,14.63
2023-02-11T19:29:09.794Z,17.70
2023-02-11T19:31:37.230Z,17.63
2023-02-11T19:34:04.972Z,16.70
2023-02-11T19:36:32.002Z,20.42
2023-02-11T19:39:03.860Z,21.10
2023-02-11T19:41:31.446Z,24.48
2023-02-11T19:43:58.251Z,19.42
2023-02-11T19:46:26.413Z,16.30
2023-02-11T19:48:53.902Z,17.77
2023-02-11T19:51:25.997Z,24.20
2023-02-11T19:53:53.908Z,29.50
2023-02-11T19:56:22.305Z,45.15
2023-02-11T19:58:49.082Z,23.48
2023-02-11T20:01:21.530Z,20.33
2023-02-11T20:03:50.055Z,21.87
2023-02-11T20:06:23.472Z,19.48
2023-02-11T20:09:00.742Z,39.88
2023-02-11T20:11:30.054Z,76.18
2023-02-11T20:13:57.669Z,96.45
2023-02-11T20:16:40.777Z,66.40
2023-02-11T20:19:17.597Z,34.65
2023-02-11T20:21:47.343Z,26.58
2023-02-11T20:24:15.486Z,26.58
2023-02-11T20:26:42.545Z,19.42
2023-02-11T20:29:09.837Z,16.63
2023-02-11T20:31:37.081Z,22.92
2023-02-11T20:34:04.154Z,18.80
2023-02-11T20:36:35.676Z,21.58
2023-02-11T20:39:04.957Z,18.55
2023-02-11T20:41:35.273Z,21.60
2023-02-11T20:44:05.238Z,19.95
2023-02-11T20:46:33.630Z,19.38
2023-02-11T20:49:01.024Z,19.48
2023-02-11T20:51:36.951Z,18.83
2023-02-11T20:54:04.125Z,20.93
2023-02-11T20:56:32.505Z,23.40
2023-02-11T20:59:00.120Z,21.08
2023-02-11T21:01:40.889Z,20.55
2023-02-11T21:04:12.592Z,19.15
2023-02-11T21:06:41.868Z,20.93
2023-02-11T21:09:10.853Z,20.83
2023-02-11T21:11:37.686Z,18.40
2023-02-11T21:14:04.610Z,23.17
2023-02-11T21:16:41.600Z,20.52
2023-02-11T21:19:18.370Z,17.73
2023-02-11T21:21:57.314Z,21.30
2023-02-11T21:24:24.057Z,21.00
2023-02-11T21:26:50.795Z,19.70
2023-02-11T21:29:17.527Z,22.33
2023-02-11T21:31:44.542Z,19.07
2023-02-11T21:34:11.509Z,20.90
2023-02-11T21:36:38.359Z,21.48
2023-02-11T21:39:05.930Z,19.88
2023-02-11T21:41:39.898Z,21.65
2023-02-11T21:44:06.676Z,23.13
2023-02-11T21:46:33.748Z,24.70
2023-02-11T21:49:00.663Z,21.58
2023-02-11T21:51:28.075Z,20.70
2023-02-11T21:54:01.291Z,20.23
2023-02-11T21:56:30.107Z,22.43
2023-02-11T21:58:59.808Z,22.33
2023-02-11T22:01:35.194Z,22.15
2023-02-11T22:04:02.009Z,22.90
2023-02-11T22:06:31.515Z,22.27
2023-02-11T22:08:59.508Z,25.83
2023-02-11T22:11:26.223Z,25.52
2023-02-11T22:13:55.170Z,21.65
2023-02-11T22:16:22.410Z,21.13
2023-02-11T22:18:49.210Z,23.90
2023-02-11T22:21:18.154Z,21.77
2023-02-11T22:23:45.281Z,24.88
2023-02-11T22:26:17.908Z,23.25
2023-02-11T22:28:45.509Z,21.75
2023-02-11T22:31:15.466Z,22.33
2023-02-11T22:33:42.412Z,20.57
2023-02-11T22:36:17.026Z,24.83
2023-02-11T22:38:44.005Z,23.48
2023-02-11T22:41:11.634Z,26.30
2023-02-11T22:43:39.498Z,24.73
2023-02-11T22:46:07.837Z,26.80
2023-02-11T22:48:35.853Z,22.67
2023-02-11T22:51:07.374Z,24.25
2023-02-11T22:53:34.380Z,25.65
2023-02-11T22:56:09.830Z,23.40
2023-02-11T22:58:37.948Z,24.93
2023-02-11T23:01:05.958Z,24.02
2023-02-11T23:03:34.297Z,23.70
2023-02-11T23:06:01.153Z,23.63
2023-02-11T23:08:29.165Z,25.23
2023-02-11T23:10:56.219Z,22.23
2023-02-11T23:13:23.064Z,20.60
2023-02-11T23:15:49.864Z,20.35
2023-02-11T23:18:16.575Z,22.35
2023-02-11T23:20:44.578Z,21.40
2023-02-11T23:23:11.249Z,21.60
2023-02-11T23:25:43.455Z,23.17
2023-02-11T23:28:11.608Z,21.23
2023-02-11T23:30:38.653Z,22.80
2023-02-11T23:33:06.043Z,22.75
2023-02-11T23:35:33.255Z,23.90
2023-02-11T23:38:00.039Z,22.67
2023-02-11T23:40:26.827Z,21.92
2023-02-11T23:42:53.577Z,25.15
2023-02-11T23:45:35.400Z,28.08
2023-02-11T23:48:02.077Z,25.67
2023-02-11T23:50:28.780Z,20.52
2023-02-11T23:52:55.732Z,22.10
2023-02-11T23:55:22.675Z,24.45
2023-02-11T23:57:49.389Z,23.27
